sensor_id;sensor_type;location;lat;lon;timestamp;P1;durP1;ratioP1;P2;durP2;ratioP2
36715;SDS011;22699;51.034;3.730;2023-05-07T00:00:12;11.68;;;3.72;;
36715;SDS011;22699;51.034;3.730;2023-05-07T00:02:40;11.77;;;3.85;;
36715;SDS011;22699;51.034;3.730;2023-05-07T00:05:12;8.93;;;4.40;;
36715;SDS011;22699;51.034;3.730;2023-05-07T00:07:37;9.60;;;3.35;;
36715;SDS011;22699;51.034;3.730;2023-05-07T00:10:05;11.00;;;3.92;;
36715;SDS011;22699;51.034;3.730;2023-05-07T00:12:32;10.15;;;3.28;;
36715;SDS011;22699;51.034;3.730;2023-05-07T00:15:28;8.90;;;3.53;;
36715;SDS011;22699;51.034;3.730;2023-05-07T00:17:55;8.80;;;3.53;;
36715;SDS011;22699;51.034;3.730;2023-05-07T00:20:22;7.38;;;3.38;;
36715;SDS011;22699;51.034;3.730;2023-05-07T00:22:52;9.95;;;3.63;;
36715;SDS011;22699;51.034;3.730;2023-05-07T00:25:35;11.52;;;3.63;;
36715;SDS011;22699;51.034;3.730;2023-05-07T00:28:09;12.93;;;3.90;;
36715;SDS011;22699;51.034;3.730;2023-05-07T00:30:35;9.85;;;3.30;;
36715;SDS011;22699;51.034;3.730;2023-05-07T00:33:01;9.55;;;3.60;;
36715;SDS011;22699;51.034;3.730;2023-05-07T00:35:28;10.60;;;3.80;;
36715;SDS011;22699;51.034;3.730;2023-05-07T00:37:54;13.05;;;3.78;;
36715;SDS011;22699;51.034;3.730;2023-05-07T00:40:21;7.82;;;3.50;;
36715;SDS011;22699;51.034;3.730;2023-05-07T00:42:48;9.18;;;3.42;;
36715;SDS011;22699;51.034;3.730;2023-05-07T00:47:48;9.90;;;3.75;;
36715;SDS011;22699;51.034;3.730;2023-05-07T00:50:14;10.80;;;4.07;;
36715;SDS011;22699;51.034;3.730;2023-05-07T00:52:44;9.93;;;3.55;;
36715;SDS011;22699;51.034;3.730;2023-05-07T00:58:03;8.02;;;3.50;;
36715;SDS011;22699;51.034;3.730;2023-05-07T01:00:29;12.38;;;3.63;;
36715;SDS011;22699;51.034;3.730;2023-05-07T01:03:02;8.60;;;3.17;;
36715;SDS011;22699;51.034;3.730;2023-05-07T01:05:33;10.38;;;3.40;;
36715;SDS011;22699;51.034;3.730;2023-05-07T01:07:59;6.70;;;3.42;;
36715;SDS011;22699;51.034;3.730;2023-05-07T01:10:29;10.38;;;3.65;;
36715;SDS011;22699;51.034;3.730;2023-05-07T01:12:58;7.22;;;4.18;;
36715;SDS011;22699;51.034;3.730;2023-05-07T01:15:40;7.43;;;3.50;;
36715;SDS011;22699;51.034;3.730;2023-05-07T01:18:08;12.05;;;4.03;;
36715;SDS011;22699;51.034;3.730;2023-05-07T01:20:36;7.07;;;3.03;;
36715;SDS011;22699;51.034;3.730;2023-05-07T01:23:04;5.97;;;3.88;;
36715;SDS011;22699;51.034;3.730;2023-05-07T01:25:32;9.35;;;3.60;;
36715;SDS011;22699;51.034;3.730;2023-05-07T01:27:58;10.15;;;3.58;;
36715;SDS011;22699;51.034;3.730;2023-05-07T01:30:27;14.48;;;4.63;;
36715;SDS011;22699;51.034;3.730;2023-05-07T01:33:01;8.23;;;3.30;;
36715;SDS011;22699;51.034;3.730;2023-05-07T01:35:32;8.57;;;3.30;;
36715;SDS011;22699;51.034;3.730;2023-05-07T01:38:08;10.05;;;3.65;;
36715;SDS011;22699;51.034;3.730;2023-05-07T01:40:38;7.40;;;3.05;;
36715;SDS011;22699;51.034;3.730;2023-05-07T01:43:10;7.50;;;2.92;;
36715;SDS011;22699;51.034;3.730;2023-05-07T01:48:57;7.65;;;3.63;;
36715;SDS011;22699;51.034;3.730;2023-05-07T01:54:45;9.57;;;4.22;;
36715;SDS011;22699;51.034;3.730;2023-05-07T01:57:26;9.15;;;3.80;;
36715;SDS011;22699;51.034;3.730;2023-05-07T02:02:47;12.27;;;4.60;;
36715;SDS011;22699;51.034;3.730;2023-05-07T02:05:25;14.77;;;4.40;;
36715;SDS011;22699;51.034;3.730;2023-05-07T02:07:50;13.00;;;4.57;;
36715;SDS011;22699;51.034;3.730;2023-05-07T02:10:19;7.55;;;4.47;;
36715;SDS011;22699;51.034;3.730;2023-05-07T02:12:45;8.13;;;4.18;;
36715;SDS011;22699;51.034;3.730;2023-05-07T02:15:17;10.13;;;4.68;;
36715;SDS011;22699;51.034;3.730;2023-05-07T02:18:02;11.43;;;4.63;;
36715;SDS011;22699;51.034;3.730;2023-05-07T02:20:32;15.15;;;5.00;;
36715;SDS011;22699;51.034;3.730;2023-05-07T02:23:05;11.05;;;4.32;;
36715;SDS011;22699;51.034;3.730;2023-05-07T02:25:35;15.07;;;5.10;;
36715;SDS011;22699;51.034;3.730;2023-05-07T02:28:02;10.50;;;5.00;;
36715;SDS011;22699;51.034;3.730;2023-05-07T02:30:35;11.80;;;4.70;;
36715;SDS011;22699;51.034;3.730;2023-05-07T02:33:03;10.80;;;3.95;;
36715;SDS011;22699;51.034;3.730;2023-05-07T02:35:51;11.93;;;4.32;;
36715;SDS011;22699;51.034;3.730;2023-05-07T02:38:38;8.95;;;4.43;;
36715;SDS011;22699;51.034;3.730;2023-05-07T02:43:35;10.32;;;4.60;;
36715;SDS011;22699;51.034;3.730;2023-05-07T02:46:05;10.02;;;4.70;;
36715;SDS011;22699;51.034;3.730;2023-05-07T02:48:34;8.98;;;4.20;;
36715;SDS011;22699;51.034;3.730;2023-05-07T02:53:30;9.15;;;4.18;;
36715;SDS011;22699;51.034;3.730;2023-05-07T02:55:56;8.63;;;4.60;;
36715;SDS011;22699;51.034;3.730;2023-05-07T02:58:23;14.75;;;5.35;;
36715;SDS011;22699;51.034;3.730;2023-05-07T03:00:50;11.38;;;5.70;;
36715;SDS011;22699;51.034;3.730;2023-05-07T03:03:18;11.95;;;4.72;;
36715;SDS011;22699;51.034;3.730;2023-05-07T03:05:47;9.70;;;5.07;;
36715;SDS011;22699;51.034;3.730;2023-05-07T03:08:19;10.25;;;4.70;;
36715;SDS011;22699;51.034;3.730;2023-05-07T03:10:46;10.02;;;5.20;;
36715;SDS011;22699;51.034;3.730;2023-05-07T03:13:19;12.85;;;5.38;;
36715;SDS011;22699;51.034;3.730;2023-05-07T03:15:46;14.18;;;5.40;;
36715;SDS011;22699;51.034;3.730;2023-05-07T03:18:13;8.57;;;4.70;;
36715;SDS011;22699;51.034;3.730;2023-05-07T03:20:42;12.40;;;5.30;;
36715;SDS011;22699;51.034;3.730;2023-05-07T03:23:10;11.88;;;5.18;;
36715;SDS011;22699;51.034;3.730;2023-05-07T03:25:36;14.32;;;5.40;;
36715;SDS011;22699;51.034;3.730;2023-05-07T03:28:02;11.20;;;4.85;;
36715;SDS011;22699;51.034;3.730;2023-05-07T03:30:29;12.20;;;5.43;;
36715;SDS011;22699;51.034;3.730;2023-05-07T03:32:55;10.00;;;4.60;;
36715;SDS011;22699;51.034;3.730;2023-05-07T03:35:22;11.65;;;5.00;;
36715;SDS011;22699;51.034;3.730;2023-05-07T03:37:51;12.00;;;5.38;;
36715;SDS011;22699;51.034;3.730;2023-05-07T03:40:24;9.85;;;5.00;;
36715;SDS011;22699;51.034;3.730;2023-05-07T03:43:00;12.05;;;6.38;;
36715;SDS011;22699;51.034;3.730;2023-05-07T03:45:28;10.10;;;5.00;;
36715;SDS011;22699;51.034;3.730;2023-05-07T03:47:55;11.90;;;5.55;;
36715;SDS011;22699;51.034;3.730;2023-05-07T03:50:25;11.00;;;5.60;;
36715;SDS011;22699;51.034;3.730;2023-05-07T03:52:52;14.77;;;5.88;;
36715;SDS011;22699;51.034;3.730;2023-05-07T03:55:34;8.70;;;5.60;;
36715;SDS011;22699;51.034;3.730;2023-05-07T03:58:02;10.23;;;5.95;;
36715;SDS011;22699;51.034;3.730;2023-05-07T04:00:28;10.90;;;5.10;;
36715;SDS011;22699;51.034;3.730;2023-05-07T04:03:05;11.73;;;6.05;;
36715;SDS011;22699;51.034;3.730;2023-05-07T04:05:46;14.75;;;6.00;;
36715;SDS011;22699;51.034;3.730;2023-05-07T04:08:20;11.07;;;6.60;;
36715;SDS011;22699;51.034;3.730;2023-05-07T04:10:47;13.82;;;6.82;;
36715;SDS011;22699;51.034;3.730;2023-05-07T04:13:22;15.73;;;6.40;;
36715;SDS011;22699;51.034;3.730;2023-05-07T04:15:47;14.25;;;6.22;;
36715;SDS011;22699;51.034;3.730;2023-05-07T04:18:15;16.38;;;6.20;;
36715;SDS011;22699;51.034;3.730;2023-05-07T04:20:40;13.57;;;6.72;;
36715;SDS011;22699;51.034;3.730;2023-05-07T04:23:14;10.70;;;5.90;;
36715;SDS011;22699;51.034;3.730;2023-05-07T04:25:52;9.88;;;5.47;;
36715;SDS011;22699;51.034;3.730;2023-05-07T04:28:24;12.77;;;6.30;;
36715;SDS011;22699;51.034;3.730;2023-05-07T04:30:55;11.85;;;6.22;;
36715;SDS011;22699;51.034;3.730;2023-05-07T04:33:21;9.82;;;5.90;;
36715;SDS011;22699;51.034;3.730;2023-05-07T04:35:46;13.52;;;6.97;;
36715;SDS011;22699;51.034;3.730;2023-05-07T04:38:15;13.50;;;5.90;;
36715;SDS011;22699;51.034;3.730;2023-05-07T04:40:44;9.25;;;5.55;;
36715;SDS011;22699;51.034;3.730;2023-05-07T04:43:19;11.35;;;5.95;;
36715;SDS011;22699;51.034;3.730;2023-05-07T04:45:45;13.32;;;6.28;;
36715;SDS011;22699;51.034;3.730;2023-05-07T04:48:14;11.55;;;5.95;;
36715;SDS011;22699;51.034;3.730;2023-05-07T04:50:48;8.20;;;5.95;;
36715;SDS011;22699;51.034;3.730;2023-05-07T04:53:20;11.77;;;6.45;;
36715;SDS011;22699;51.034;3.730;2023-05-07T05:01:37;10.00;;;5.47;;
36715;SDS011;22699;51.034;3.730;2023-05-07T05:04:04;16.35;;;6.47;;
36715;SDS011;22699;51.034;3.730;2023-05-07T05:09:40;13.02;;;6.72;;
36715;SDS011;22699;51.034;3.730;2023-05-07T05:12:19;10.45;;;6.28;;
36715;SDS011;22699;51.034;3.730;2023-05-07T05:14:51;13.95;;;7.00;;
36715;SDS011;22699;51.034;3.730;2023-05-07T05:20:02;11.38;;;5.93;;
36715;SDS011;22699;51.034;3.730;2023-05-07T05:22:28;9.43;;;6.03;;
36715;SDS011;22699;51.034;3.730;2023-05-07T05:27:45;12.63;;;5.10;;
36715;SDS011;22699;51.034;3.730;2023-05-07T05:30:42;10.75;;;5.35;;
36715;SDS011;22699;51.034;3.730;2023-05-07T05:33:10;11.95;;;5.55;;
36715;SDS011;22699;51.034;3.730;2023-05-07T05:35:37;9.35;;;5.00;;
36715;SDS011;22699;51.034;3.730;2023-05-07T05:38:04;14.18;;;5.97;;
36715;SDS011;22699;51.034;3.730;2023-05-07T05:40:32;11.43;;;5.45;;
36715;SDS011;22699;51.034;3.730;2023-05-07T05:42:58;14.23;;;5.43;;
36715;SDS011;22699;51.034;3.730;2023-05-07T05:45:33;12.68;;;6.15;;
36715;SDS011;22699;51.034;3.730;2023-05-07T05:48:03;11.98;;;5.05;;
36715;SDS011;22699;51.034;3.730;2023-05-07T05:50:38;10.27;;;5.85;;
36715;SDS011;22699;51.034;3.730;2023-05-07T05:53:08;11.45;;;5.43;;
36715;SDS011;22699;51.034;3.730;2023-05-07T05:55:35;13.30;;;6.40;;
36715;SDS011;22699;51.034;3.730;2023-05-07T05:58:06;9.25;;;5.55;;
36715;SDS011;22699;51.034;3.730;2023-05-07T06:00:42;12.02;;;5.60;;
36715;SDS011;22699;51.034;3.730;2023-05-07T06:03:11;11.15;;;5.82;;
36715;SDS011;22699;51.034;3.730;2023-05-07T06:05:36;11.07;;;6.78;;
36715;SDS011;22699;51.034;3.730;2023-05-07T06:08:03;12.50;;;7.22;;
36715;SDS011;22699;51.034;3.730;2023-05-07T06:10:31;15.07;;;8.05;;
36715;SDS011;22699;51.034;3.730;2023-05-07T06:12:57;14.68;;;7.53;;
36715;SDS011;22699;51.034;3.730;2023-05-07T06:15:25;12.07;;;7.15;;
36715;SDS011;22699;51.034;3.730;2023-05-07T06:17:51;11.70;;;6.97;;
36715;SDS011;22699;51.034;3.730;2023-05-07T06:20:22;12.63;;;7.10;;
36715;SDS011;22699;51.034;3.730;2023-05-07T06:22:49;12.70;;;7.13;;
36715;SDS011;22699;51.034;3.730;2023-05-07T06:25:15;11.48;;;6.85;;
36715;SDS011;22699;51.034;3.730;2023-05-07T06:27:41;13.13;;;7.22;;
36715;SDS011;22699;51.034;3.730;2023-05-07T06:30:07;10.20;;;6.70;;
36715;SDS011;22699;51.034;3.730;2023-05-07T06:32:34;10.90;;;6.63;;
36715;SDS011;22699;51.034;3.730;2023-05-07T06:35:01;11.60;;;6.05;;
36715;SDS011;22699;51.034;3.730;2023-05-07T06:37:27;11.55;;;6.05;;
36715;SDS011;22699;51.034;3.730;2023-05-07T06:39:56;12.45;;;6.55;;
36715;SDS011;22699;51.034;3.730;2023-05-07T06:42:22;13.23;;;6.18;;
36715;SDS011;22699;51.034;3.730;2023-05-07T06:44:51;11.07;;;6.00;;
36715;SDS011;22699;51.034;3.730;2023-05-07T06:47:17;9.55;;;5.75;;
36715;SDS011;22699;51.034;3.730;2023-05-07T06:49:44;9.55;;;6.05;;
36715;SDS011;22699;51.034;3.730;2023-05-07T06:52:10;12.60;;;5.95;;
36715;SDS011;22699;51.034;3.730;2023-05-07T06:54:37;8.98;;;5.43;;
36715;SDS011;22699;51.034;3.730;2023-05-07T06:57:05;9.07;;;4.70;;
36715;SDS011;22699;51.034;3.730;2023-05-07T06:59:33;10.43;;;5.90;;
36715;SDS011;22699;51.034;3.730;2023-05-07T07:02:21;6.82;;;4.63;;
36715;SDS011;22699;51.034;3.730;2023-05-07T07:04:50;13.57;;;5.93;;
36715;SDS011;22699;51.034;3.730;2023-05-07T07:07:19;12.13;;;5.47;;
36715;SDS011;22699;51.034;3.730;2023-05-07T07:09:48;8.18;;;4.88;;
36715;SDS011;22699;51.034;3.730;2023-05-07T07:12:16;10.23;;;5.63;;
36715;SDS011;22699;51.034;3.730;2023-05-07T07:14:42;12.45;;;5.55;;
36715;SDS011;22699;51.034;3.730;2023-05-07T07:17:08;10.13;;;5.05;;
36715;SDS011;22699;51.034;3.730;2023-05-07T07:19:35;12.52;;;5.70;;
36715;SDS011;22699;51.034;3.730;2023-05-07T07:22:03;10.50;;;5.80;;
36715;SDS011;22699;51.034;3.730;2023-05-07T07:24:28;8.38;;;4.63;;
36715;SDS011;22699;51.034;3.730;2023-05-07T07:26:54;12.55;;;5.53;;
36715;SDS011;22699;51.034;3.730;2023-05-07T07:29:21;11.57;;;4.60;;
36715;SDS011;22699;51.034;3.730;2023-05-07T07:31:47;6.43;;;4.13;;
36715;SDS011;22699;51.034;3.730;2023-05-07T07:34:20;9.20;;;4.65;;
36715;SDS011;22699;51.034;3.730;2023-05-07T07:39:16;7.60;;;4.40;;
36715;SDS011;22699;51.034;3.730;2023-05-07T07:41:44;9.07;;;4.70;;
36715;SDS011;22699;51.034;3.730;2023-05-07T07:44:12;7.88;;;4.85;;
36715;SDS011;22699;51.034;3.730;2023-05-07T07:49:24;7.82;;;4.78;;
36715;SDS011;22699;51.034;3.730;2023-05-07T07:51:54;10.07;;;4.82;;
36715;SDS011;22699;51.034;3.730;2023-05-07T07:54:49;8.25;;;4.32;;
36715;SDS011;22699;51.034;3.730;2023-05-07T07:57:16;7.63;;;4.47;;
36715;SDS011;22699;51.034;3.730;2023-05-07T07:59:51;6.88;;;4.07;;
36715;SDS011;22699;51.034;3.730;2023-05-07T08:02:45;10.55;;;4.80;;
36715;SDS011;22699;51.034;3.730;2023-05-07T08:05:22;7.93;;;4.50;;
36715;SDS011;22699;51.034;3.730;2023-05-07T08:07:52;8.40;;;4.45;;
36715;SDS011;22699;51.034;3.730;2023-05-07T08:13:06;11.90;;;4.82;;
36715;SDS011;22699;51.034;3.730;2023-05-07T08:15:42;7.90;;;4.20;;
36715;SDS011;22699;51.034;3.730;2023-05-07T08:18:23;10.10;;;4.60;;
36715;SDS011;22699;51.034;3.730;2023-05-07T08:20:57;11.57;;;5.18;;
36715;SDS011;22699;51.034;3.730;2023-05-07T08:23:48;7.57;;;4.10;;
36715;SDS011;22699;51.034;3.730;2023-05-07T08:26:13;9.75;;;5.10;;
36715;SDS011;22699;51.034;3.730;2023-05-07T08:31:32;9.55;;;4.80;;
36715;SDS011;22699;51.034;3.730;2023-05-07T08:33:57;12.63;;;5.55;;
36715;SDS011;22699;51.034;3.730;2023-05-07T08:36:35;7.72;;;4.75;;
36715;SDS011;22699;51.034;3.730;2023-05-07T08:39:02;8.73;;;5.07;;
36715;SDS011;22699;51.034;3.730;2023-05-07T08:41:27;7.85;;;4.53;;
36715;SDS011;22699;51.034;3.730;2023-05-07T08:43:59;10.65;;;5.00;;
36715;SDS011;22699;51.034;3.730;2023-05-07T08:46:30;7.28;;;4.45;;
36715;SDS011;22699;51.034;3.730;2023-05-07T08:49:04;9.32;;;4.95;;
36715;SDS011;22699;51.034;3.730;2023-05-07T08:51:30;7.03;;;4.85;;
36715;SDS011;22699;51.034;3.730;2023-05-07T08:53:56;11.65;;;4.85;;
36715;SDS011;22699;51.034;3.730;2023-05-07T08:56:37;10.90;;;5.65;;
36715;SDS011;22699;51.034;3.730;2023-05-07T09:02:09;8.83;;;4.67;;
36715;SDS011;22699;51.034;3.730;2023-05-07T09:04:39;10.63;;;5.65;;
36715;SDS011;22699;51.034;3.730;2023-05-07T09:07:05;14.23;;;4.90;;
36715;SDS011;22699;51.034;3.730;2023-05-07T09:09:32;8.57;;;4.90;;
36715;SDS011;22699;51.034;3.730;2023-05-07T09:12:00;11.60;;;5.75;;
36715;SDS011;22699;51.034;3.730;2023-05-07T09:14:29;9.02;;;4.78;;
36715;SDS011;22699;51.034;3.730;2023-05-07T09:16:57;8.65;;;4.18;;
36715;SDS011;22699;51.034;3.730;2023-05-07T09:19:24;9.38;;;4.43;;
36715;SDS011;22699;51.034;3.730;2023-05-07T09:21:59;7.15;;;3.72;;
36715;SDS011;22699;51.034;3.730;2023-05-07T09:24:29;9.48;;;3.92;;
36715;SDS011;22699;51.034;3.730;2023-05-07T09:27:00;6.85;;;3.70;;
36715;SDS011;22699;51.034;3.730;2023-05-07T09:29:27;7.47;;;3.65;;
36715;SDS011;22699;51.034;3.730;2023-05-07T09:31:55;10.13;;;3.83;;
36715;SDS011;22699;51.034;3.730;2023-05-07T09:34:21;5.63;;;3.40;;
36715;SDS011;22699;51.034;3.730;2023-05-07T09:36:48;8.80;;;4.30;;
36715;SDS011;22699;51.034;3.730;2023-05-07T09:39:13;8.32;;;4.20;;
36715;SDS011;22699;51.034;3.730;2023-05-07T09:41:43;9.60;;;4.15;;
36715;SDS011;22699;51.034;3.730;2023-05-07T09:44:09;12.93;;;5.32;;
36715;SDS011;22699;51.034;3.730;2023-05-07T09:46:36;9.10;;;5.05;;
36715;SDS011;22699;51.034;3.730;2023-05-07T09:49:20;10.55;;;4.30;;
36715;SDS011;22699;51.034;3.730;2023-05-07T09:51:49;7.50;;;3.13;;
36715;SDS011;22699;51.034;3.730;2023-05-07T09:54:17;8.65;;;4.57;;
36715;SDS011;22699;51.034;3.730;2023-05-07T09:56:49;7.07;;;3.65;;
36715;SDS011;22699;51.034;3.730;2023-05-07T09:59:16;5.82;;;3.35;;
36715;SDS011;22699;51.034;3.730;2023-05-07T10:01:45;6.03;;;3.88;;
36715;SDS011;22699;51.034;3.730;2023-05-07T10:04:11;6.30;;;3.55;;
36715;SDS011;22699;51.034;3.730;2023-05-07T10:06:38;6.95;;;3.10;;
36715;SDS011;22699;51.034;3.730;2023-05-07T10:09:05;5.75;;;3.47;;
36715;SDS011;22699;51.034;3.730;2023-05-07T10:11:32;5.20;;;2.20;;
36715;SDS011;22699;51.034;3.730;2023-05-07T10:14:02;6.00;;;2.65;;
36715;SDS011;22699;51.034;3.730;2023-05-07T10:16:35;6.63;;;2.38;;
36715;SDS011;22699;51.034;3.730;2023-05-07T10:19:06;6.30;;;3.10;;
36715;SDS011;22699;51.034;3.730;2023-05-07T10:21:44;6.30;;;3.25;;
36715;SDS011;22699;51.034;3.730;2023-05-07T10:24:26;5.05;;;2.70;;
36715;SDS011;22699;51.034;3.730;2023-05-07T10:26:57;3.97;;;2.28;;
36715;SDS011;22699;51.034;3.730;2023-05-07T10:34:47;7.13;;;2.25;;
36715;SDS011;22699;51.034;3.730;2023-05-07T10:37:20;6.43;;;2.00;;
36715;SDS011;22699;51.034;3.730;2023-05-07T10:40:02;5.43;;;2.05;;
36715;SDS011;22699;51.034;3.730;2023-05-07T10:42:28;3.60;;;1.75;;
36715;SDS011;22699;51.034;3.730;2023-05-07T10:45:10;3.83;;;1.85;;
36715;SDS011;22699;51.034;3.730;2023-05-07T10:48:03;4.18;;;1.60;;
36715;SDS011;22699;51.034;3.730;2023-05-07T10:50:31;4.70;;;1.98;;
36715;SDS011;22699;51.034;3.730;2023-05-07T10:55:49;3.33;;;1.90;;
36715;SDS011;22699;51.034;3.730;2023-05-07T10:58:22;3.30;;;1.50;;
36715;SDS011;22699;51.034;3.730;2023-05-07T11:01:01;4.22;;;1.58;;
36715;SDS011;22699;51.034;3.730;2023-05-07T11:03:29;3.53;;;1.50;;
36715;SDS011;22699;51.034;3.730;2023-05-07T11:08:55;4.65;;;1.73;;
36715;SDS011;22699;51.034;3.730;2023-05-07T11:17:10;2.83;;;1.80;;
36715;SDS011;22699;51.034;3.730;2023-05-07T11:19:55;2.83;;;1.65;;
36715;SDS011;22699;51.034;3.730;2023-05-07T11:24:56;2.97;;;1.67;;
36715;SDS011;22699;51.034;3.730;2023-05-07T11:27:24;6.18;;;2.17;;
36715;SDS011;22699;51.034;3.730;2023-05-07T11:29:52;4.85;;;2.03;;
36715;SDS011;22699;51.034;3.730;2023-05-07T11:32:27;3.10;;;1.92;;
36715;SDS011;22699;51.034;3.730;2023-05-07T11:34:55;5.35;;;1.98;;
36715;SDS011;22699;51.034;3.730;2023-05-07T11:37:23;3.65;;;2.30;;
36715;SDS011;22699;51.034;3.730;2023-05-07T11:39:50;2.13;;;1.45;;
36715;SDS011;22699;51.034;3.730;2023-05-07T11:42:38;3.65;;;1.73;;
36715;SDS011;22699;51.034;3.730;2023-05-07T11:45:22;2.95;;;1.60;;
36715;SDS011;22699;51.034;3.730;2023-05-07T11:50:21;3.35;;;2.38;;
36715;SDS011;22699;51.034;3.730;2023-05-07T11:52:53;3.83;;;2.25;;
36715;SDS011;22699;51.034;3.730;2023-05-07T11:55:19;4.60;;;2.10;;
36715;SDS011;22699;51.034;3.730;2023-05-07T11:57:44;5.07;;;2.13;;
36715;SDS011;22699;51.034;3.730;2023-05-07T12:00:10;2.20;;;1.50;;
36715;SDS011;22699;51.034;3.730;2023-05-07T12:02:42;2.80;;;1.67;;
36715;SDS011;22699;51.034;3.730;2023-05-07T12:05:12;4.32;;;1.50;;
36715;SDS011;22699;51.034;3.730;2023-05-07T12:07:39;2.10;;;1.60;;
36715;SDS011;22699;51.034;3.730;2023-05-07T12:10:05;3.78;;;2.05;;
36715;SDS011;22699;51.034;3.730;2023-05-07T12:12:40;3.45;;;2.00;;
36715;SDS011;22699;51.034;3.730;2023-05-07T12:15:10;5.15;;;2.33;;
36715;SDS011;22699;51.034;3.730;2023-05-07T12:17:35;2.92;;;1.83;;
36715;SDS011;22699;51.034;3.730;2023-05-07T12:20:02;3.40;;;1.73;;
36715;SDS011;22699;51.034;3.730;2023-05-07T12:22:31;3.53;;;1.83;;
36715;SDS011;22699;51.034;3.730;2023-05-07T12:24:58;5.38;;;2.25;;
36715;SDS011;22699;51.034;3.730;2023-05-07T12:29:57;5.35;;;2.00;;
36715;SDS011;22699;51.034;3.730;2023-05-07T12:32:39;3.88;;;2.20;;
36715;SDS011;22699;51.034;3.730;2023-05-07T12:35:05;3.28;;;1.50;;
36715;SDS011;22699;51.034;3.730;2023-05-07T12:37:32;2.60;;;1.80;;
36715;SDS011;22699;51.034;3.730;2023-05-07T12:40:10;3.63;;;1.50;;
36715;SDS011;22699;51.034;3.730;2023-05-07T12:42:36;3.42;;;1.75;;
36715;SDS011;22699;51.034;3.730;2023-05-07T12:45:14;1.70;;;1.30;;
36715;SDS011;22699;51.034;3.730;2023-05-07T12:47:44;4.57;;;1.58;;
36715;SDS011;22699;51.034;3.730;2023-05-07T12:50:11;2.13;;;1.23;;
36715;SDS011;22699;51.034;3.730;2023-05-07T12:52:39;3.35;;;1.92;;
36715;SDS011;22699;51.034;3.730;2023-05-07T12:55:08;4.03;;;2.10;;
36715;SDS011;22699;51.034;3.730;2023-05-07T12:57:39;6.25;;;2.60;;
36715;SDS011;22699;51.034;3.730;2023-05-07T13:00:12;3.67;;;2.00;;
36715;SDS011;22699;51.034;3.730;2023-05-07T13:02:39;5.90;;;1.60;;
36715;SDS011;22699;51.034;3.730;2023-05-07T13:05:07;3.78;;;2.05;;
36715;SDS011;22699;51.034;3.730;2023-05-07T13:07:34;3.80;;;1.90;;
36715;SDS011;22699;51.034;3.730;2023-05-07T13:10:18;4.38;;;1.88;;
36715;SDS011;22699;51.034;3.730;2023-05-07T13:12:45;3.33;;;2.30;;
36715;SDS011;22699;51.034;3.730;2023-05-07T13:15:11;4.30;;;1.80;;
36715;SDS011;22699;51.034;3.730;2023-05-07T13:17:36;4.22;;;2.05;;
36715;SDS011;22699;51.034;3.730;2023-05-07T13:20:04;2.72;;;1.77;;
36715;SDS011;22699;51.034;3.730;2023-05-07T13:22:39;2.97;;;1.92;;
36715;SDS011;22699;51.034;3.730;2023-05-07T13:25:07;2.58;;;1.48;;
36715;SDS011;22699;51.034;3.730;2023-05-07T13:32:35;3.20;;;1.73;;
36715;SDS011;22699;51.034;3.730;2023-05-07T13:35:02;1.80;;;1.40;;
36715;SDS011;22699;51.034;3.730;2023-05-07T13:37:34;3.97;;;1.73;;
36715;SDS011;22699;51.034;3.730;2023-05-07T13:40:03;2.63;;;1.83;;
36715;SDS011;22699;51.034;3.730;2023-05-07T13:42:33;3.45;;;1.88;;
36715;SDS011;22699;51.034;3.730;2023-05-07T13:44:59;7.10;;;2.13;;
36715;SDS011;22699;51.034;3.730;2023-05-07T13:50:33;2.90;;;2.00;;
36715;SDS011;22699;51.034;3.730;2023-05-07T13:53:10;4.30;;;2.53;;
36715;SDS011;22699;51.034;3.730;2023-05-07T13:55:51;4.80;;;2.65;;
36715;SDS011;22699;51.034;3.730;2023-05-07T13:58:19;4.05;;;2.25;;
36715;SDS011;22699;51.034;3.730;2023-05-07T14:00:57;3.05;;;2.10;;
36715;SDS011;22699;51.034;3.730;2023-05-07T14:03:22;5.20;;;2.65;;
36715;SDS011;22699;51.034;3.730;2023-05-07T14:05:51;3.75;;;2.80;;
36715;SDS011;22699;51.034;3.730;2023-05-07T14:08:22;6.63;;;2.97;;
36715;SDS011;22699;51.034;3.730;2023-05-07T14:10:50;3.38;;;2.65;;
36715;SDS011;22699;51.034;3.730;2023-05-07T14:13:31;3.42;;;2.47;;
36715;SDS011;22699;51.034;3.730;2023-05-07T14:16:04;3.55;;;2.78;;
36715;SDS011;22699;51.034;3.730;2023-05-07T14:18:45;5.88;;;3.10;;
36715;SDS011;22699;51.034;3.730;2023-05-07T14:21:10;4.47;;;3.13;;
36715;SDS011;22699;51.034;3.730;2023-05-07T14:23:36;5.03;;;3.33;;
36715;SDS011;22699;51.034;3.730;2023-05-07T14:26:08;7.18;;;4.72;;
36715;SDS011;22699;51.034;3.730;2023-05-07T14:28:33;5.32;;;4.82;;
36715;SDS011;22699;51.034;3.730;2023-05-07T14:31:05;8.70;;;7.22;;
36715;SDS011;22699;51.034;3.730;2023-05-07T14:36:01;6.40;;;4.97;;
36715;SDS011;22699;51.034;3.730;2023-05-07T14:38:34;5.07;;;4.57;;
36715;SDS011;22699;51.034;3.730;2023-05-07T14:41:00;6.10;;;4.07;;
36715;SDS011;22699;51.034;3.730;2023-05-07T14:43:26;6.70;;;4.13;;
36715;SDS011;22699;51.034;3.730;2023-05-07T14:45:54;6.05;;;4.47;;
36715;SDS011;22699;51.034;3.730;2023-05-07T14:48:20;4.72;;;4.28;;
36715;SDS011;22699;51.034;3.730;2023-05-07T14:50:48;6.50;;;4.28;;
36715;SDS011;22699;51.034;3.730;2023-05-07T14:53:13;4.80;;;3.13;;
36715;SDS011;22699;51.034;3.730;2023-05-07T14:55:40;7.40;;;3.50;;
36715;SDS011;22699;51.034;3.730;2023-05-07T14:58:09;6.03;;;4.00;;
36715;SDS011;22699;51.034;3.730;2023-05-07T15:00:36;6.90;;;4.60;;
36715;SDS011;22699;51.034;3.730;2023-05-07T15:03:07;5.97;;;4.05;;
36715;SDS011;22699;51.034;3.730;2023-05-07T15:05:38;6.20;;;4.70;;
36715;SDS011;22699;51.034;3.730;2023-05-07T15:08:10;7.60;;;4.63;;
36715;SDS011;22699;51.034;3.730;2023-05-07T15:10:48;5.65;;;5.00;;
36715;SDS011;22699;51.034;3.730;2023-05-07T15:13:21;8.10;;;5.47;;
36715;SDS011;22699;51.034;3.730;2023-05-07T15:18:16;8.27;;;4.35;;
36715;SDS011;22699;51.034;3.730;2023-05-07T15:20:51;5.03;;;4.50;;
36715;SDS011;22699;51.034;3.730;2023-05-07T15:23:20;7.10;;;4.20;;
36715;SDS011;22699;51.034;3.730;2023-05-07T15:25:48;7.20;;;4.40;;
36715;SDS011;22699;51.034;3.730;2023-05-07T15:28:20;5.07;;;3.67;;
36715;SDS011;22699;51.034;3.730;2023-05-07T15:33:23;6.43;;;3.53;;
36715;SDS011;22699;51.034;3.730;2023-05-07T15:35:49;4.03;;;2.50;;
36715;SDS011;22699;51.034;3.730;2023-05-07T15:38:33;4.20;;;1.95;;
36715;SDS011;22699;51.034;3.730;2023-05-07T15:41:01;3.45;;;2.42;;
36715;SDS011;22699;51.034;3.730;2023-05-07T15:43:43;4.22;;;3.05;;
36715;SDS011;22699;51.034;3.730;2023-05-07T15:46:12;5.30;;;3.45;;
36715;SDS011;22699;51.034;3.730;2023-05-07T15:48:59;4.07;;;2.50;;
36715;SDS011;22699;51.034;3.730;2023-05-07T15:51:28;3.42;;;2.60;;
36715;SDS011;22699;51.034;3.730;2023-05-07T15:53:56;3.15;;;2.22;;
36715;SDS011;22699;51.034;3.730;2023-05-07T15:56:28;4.70;;;2.60;;
36715;SDS011;22699;51.034;3.730;2023-05-07T15:58:57;2.80;;;2.13;;
36715;SDS011;22699;51.034;3.730;2023-05-07T16:01:25;4.93;;;1.92;;
36715;SDS011;22699;51.034;3.730;2023-05-07T16:03:54;3.67;;;1.88;;
36715;SDS011;22699;51.034;3.730;2023-05-07T16:06:20;3.37;;;2.37;;
36715;SDS011;22699;51.034;3.730;2023-05-07T16:08:45;5.82;;;2.30;;
36715;SDS011;22699;51.034;3.730;2023-05-07T16:11:13;2.53;;;2.25;;
36715;SDS011;22699;51.034;3.730;2023-05-07T16:13:54;4.50;;;2.40;;
36715;SDS011;22699;51.034;3.730;2023-05-07T16:16:31;4.28;;;2.42;;
36715;SDS011;22699;51.034;3.730;2023-05-07T16:19:00;4.13;;;2.50;;
36715;SDS011;22699;51.034;3.730;2023-05-07T16:21:27;4.03;;;2.83;;
36715;SDS011;22699;51.034;3.730;2023-05-07T16:23:54;3.28;;;2.10;;
36715;SDS011;22699;51.034;3.730;2023-05-07T16:26:32;2.97;;;2.25;;
36715;SDS011;22699;51.034;3.730;2023-05-07T16:29:03;4.65;;;2.97;;